Robbins, CA (95676)

11:57 PM PST on December 07, 2016 (GMT -0800)
Buchignani & Yeung Pistachio Orchard | | Change Station

Elev 46 ft 38.72 °N, 121.75 °W | Updated 20 seconds ago

Rain
Rain
38.0 °F
Feels Like 38 °F
N
0.0
Wind Variable Wind from NNW
Gusts 4.0 mph

Today
High -- | Low -- °F
--% Chance of Precip.
Yesterday
High -- | Low -- °F
Precip. -- in
Pressure 30.15 in
Visibility 5.0 miles
Clouds Mostly Cloudy 400 ft
Overcast 1600 ft
Windchill 38 °F
Dew Point 37 °F
Humidity 95%
Rainfall 0.18 in
Snow Depth Not available.
7:12 AM 4:44 PM
First Quarter, 61% visible
METAR KSMF 080753Z 35006KT 5SM -RA BR BKN004 OVC016 04/04 A3015 RMK AO2 SLP210 P0003 T00390039 400720000
Pressure 30.15 in
Visibility 5.0 miles
Clouds Mostly Cloudy 400 ft
Overcast 1600 ft
Windchill 38 °F
Dew Point 37 °F
Humidity 95%
Rainfall 0.18 in
Snow Depth Not available.
7:12 AM 4:44 PM
First Quarter, 61% visible
METAR KSMF 080753Z 35006KT 5SM -RA BR BKN004 OVC016 04/04 A3015 RMK AO2 SLP210 P0003 T00390039 400720000

10-Day Weather Forecast

Almanac

Astronomy

Dec. 07, 2016 Rise Set
Actual Time
Civil Twilight
Nautical Twilight
Astronomical Twilight
Moon
Length of Visible Light
Length of Day
Tomorrow will be .
, % of the Moon is Illuminated

Today's Extremes

State Highs State Lows

Community

WunderPhotos

Upload Photos

1,956,259 photos uploaded!

WunderBlog® & News

Nearby

Air Quality

  Air Quality AQ Index Pollutant
Not available.

Snow Depth

Station Depth Elevation

Earthquake Activity

City Distance Mag. Time & Date
Minimum magnitude displayed is 2.5.

Coastal Water Temperatures

Place Temperature

Stations

Nearby Weather Stations

Station Location Temp. Windchill Dew Point Humidity Wind Precip. Elev Updated Type
                   

Watches & Warnings

There are currently no watches in effect.